Alpena, Arkansas
Current Conditions -  °F | °C
As of 3:53 AM on Wednesday 22 Oct 2014 (Local Time) from KHRO Reporting Station
Clear Clear  
Wind Chill:   Ceiling: Unl
Heat Index:   Visibility: 10mi
Dew Point:   Wind: 6mph
Humidity: 93%   Direction: 140°SE
Pressure: 30.17"   Gusts: NA
Location:  36.29°N, 93.29°W
Report Text: KHRO 220853Z AUTO 14005KT 10SM CLR 09/08 A3017 RMK AO2 SLP209 T00940083 53012
Loading
Personal Weather Stations






























Interactive Weather Map New forecast layout! Learn more

10-Day Weather Forecast

Advertisements
Track Severe Weather on mobile